Time;durP1;ratioP1;P1;durP2;ratioP2;P2;SDS_P1;SDS_P2;PMS_P1;PMS_P2;Temp;Humidity;BMP_temperature;BMP_pressure;BME280_temperature;BME280_humidity;BME280_pressure;Samples;Min_cycle;Max_cycle;Signal;HPM_P1;HPM_P2
2022/12/09 00:00:16;;;;;;;8.93;5.40;;;;;;;;;;5079940;28;20460;-73
2022/12/09 00:02:44;;;;;;;12.80;7.67;;;;;;;;;;5080327;28;20452;-73
2022/12/09 00:05:11;;;;;;;12.83;7.93;;;;;;;;;;5080631;28;21073;-73
2022/12/09 00:07:41;;;;;;;13.30;7.13;;;;;;;;;;5096104;28;21051;-73
2022/12/09 00:10:12;;;;;;;14.40;9.03;;;;;;;;;;5078826;28;20871;-74
2022/12/09 00:12:41;;;;;;;12.67;7.47;;;;;;;;;;5079391;28;20464;-73
2022/12/09 00:15:08;;;;;;;11.90;7.70;;;;;;;;;;5080937;28;20898;-74
2022/12/09 00:17:36;;;;;;;15.17;10.23;;;;;;;;;;5081134;28;20853;-74
2022/12/09 00:20:04;;;;;;;13.33;8.97;;;;;;;;;;5080991;28;20482;-74
2022/12/09 00:22:54;;;;;;;16.37;9.07;;;;;;;;;;5099976;28;20844;-73
2022/12/09 00:25:27;;;;;;;15.33;9.80;;;;;;;;;;5095283;28;20551;-73
2022/12/09 00:28:04;;;;;;;20.03;10.00;;;;;;;;;;5079989;28;20456;-73
2022/12/09 00:30:38;;;;;;;11.70;6.20;;;;;;;;;;5079904;28;20448;-73
2022/12/09 00:33:07;;;;;;;21.90;8.93;;;;;;;;;;5078807;28;20488;-73
2022/12/09 00:35:51;;;;;;;16.20;9.07;;;;;;;;;;5081838;28;20958;-73
2022/12/09 00:38:19;;;;;;;18.47;9.70;;;;;;;;;;5099141;28;20902;-73
2022/12/09 00:40:53;;;;;;;13.07;7.40;;;;;;;;;;5100242;28;21016;-71
2022/12/09 00:43:22;;;;;;;16.60;10.33;;;;;;;;;;5085889;28;20449;-71
2022/12/09 00:45:49;;;;;;;23.87;10.17;;;;;;;;;;5081398;28;20448;-73
2022/12/09 00:48:17;;;;;;;20.13;8.90;;;;;;;;;;5085061;28;20459;-74
2022/12/09 00:50:45;;;;;;;14.40;8.07;;;;;;;;;;5088636;28;20530;-74
2022/12/09 00:53:13;;;;;;;14.33;8.27;;;;;;;;;;5089631;28;20530;-72
2022/12/09 00:55:41;;;;;;;16.30;8.07;;;;;;;;;;5086217;28;20451;-72
2022/12/09 00:58:14;;;;;;;16.83;8.37;;;;;;;;;;5100426;28;20546;-74
2022/12/09 01:00:43;;;;;;;16.63;9.63;;;;;;;;;;5097656;28;20459;-74
2022/12/09 01:03:13;;;;;;;17.87;8.40;;;;;;;;;;5078400;28;20733;-73
2022/12/09 01:05:42;;;;;;;13.77;8.57;;;;;;;;;;5078991;28;20809;-72
2022/12/09 01:08:11;;;;;;;19.90;11.50;;;;;;;;;;5079127;28;20713;-74
2022/12/09 01:10:40;;;;;;;15.30;8.70;;;;;;;;;;5078511;28;20521;-72
2022/12/09 01:13:11;;;;;;;13.33;7.37;;;;;;;;;;5081884;28;20451;-72
2022/12/09 01:15:52;;;;;;;9.40;6.23;;;;;;;;;;5077675;28;20606;-73
2022/12/09 01:18:21;;;;;;;11.80;5.40;;;;;;;;;;5078317;28;20460;-72
2022/12/09 01:20:58;;;;;;;19.77;9.97;;;;;;;;;;5079198;28;20863;-73
2022/12/09 01:23:34;;;;;;;22.57;11.20;;;;;;;;;;5078530;28;20436;-73
2022/12/09 01:26:11;;;;;;;21.03;11.20;;;;;;;;;;5078978;28;20633;-73
2022/12/09 01:28:40;;;;;;;20.00;12.33;;;;;;;;;;5078375;28;20513;-69
2022/12/09 01:31:10;;;;;;;19.53;8.80;;;;;;;;;;5078655;28;20460;-72
2022/12/09 01:33:38;;;;;;;17.20;9.57;;;;;;;;;;5078057;28;20476;-72
2022/12/09 01:36:06;;;;;;;22.20;11.83;;;;;;;;;;5079129;28;20702;-73
2022/12/09 01:38:37;;;;;;;22.87;11.87;;;;;;;;;;5078307;28;20452;-73
2022/12/09 01:41:08;;;;;;;22.40;10.03;;;;;;;;;;5080528;28;20465;-73
2022/12/09 01:43:37;;;;;;;26.27;13.97;;;;;;;;;;5080298;28;20601;-73
2022/12/09 01:46:05;;;;;;;15.73;7.90;;;;;;;;;;5079973;28;20456;-73
2022/12/09 01:51:20;;;;;;;25.27;13.40;;;;;;;;;;5078290;28;20460;-73
2022/12/09 01:53:50;;;;;;;24.00;10.87;;;;;;;;;;5077452;28;20495;-73
2022/12/09 01:56:26;;;;;;;28.30;12.33;;;;;;;;;;5093245;28;20500;-72
2022/12/09 01:58:55;;;;;;;21.03;11.07;;;;;;;;;;5097966;28;20453;-73
2022/12/09 02:01:23;;;;;;;22.77;12.50;;;;;;;;;;5099051;28;20538;-73
2022/12/09 02:03:56;;;;;;;32.37;12.90;;;;;;;;;;5098061;28;20451;-73
2022/12/09 02:06:25;;;;;;;24.23;12.40;;;;;;;;;;5098977;28;20481;-73
2022/12/09 02:08:54;;;;;;;17.87;9.80;;;;;;;;;;5098574;28;20451;-73
2022/12/09 02:11:26;;;;;;;29.87;13.10;;;;;;;;;;5098494;28;20464;-73
2022/12/09 02:14:04;;;;;;;25.80;11.73;;;;;;;;;;5098321;28;20471;-73
2022/12/09 02:16:39;;;;;;;21.17;11.60;;;;;;;;;;5097370;28;20827;-73
2022/12/09 02:19:17;;;;;;;26.60;13.40;;;;;;;;;;5097903;28;20799;-72
2022/12/09 02:21:50;;;;;;;23.77;12.00;;;;;;;;;;5097905;28;20458;-74
2022/12/09 02:24:21;;;;;;;24.20;12.97;;;;;;;;;;5098266;28;20448;-73
2022/12/09 02:26:54;;;;;;;25.67;11.30;;;;;;;;;;5098167;28;20505;-72
2022/12/09 02:29:31;;;;;;;27.57;11.73;;;;;;;;;;5097666;28;20723;-74
2022/12/09 02:32:11;;;;;;;33.83;12.93;;;;;;;;;;5097223;28;20524;-73
2022/12/09 02:34:54;;;;;;;27.77;12.13;;;;;;;;;;5096799;28;20490;-73
2022/12/09 02:37:30;;;;;;;35.53;11.10;;;;;;;;;;5091982;28;20467;-74
2022/12/09 02:40:00;;;;;;;28.17;12.70;;;;;;;;;;5087190;28;20449;-74
2022/12/09 02:42:34;;;;;;;28.07;12.50;;;;;;;;;;5089413;28;20467;-73
2022/12/09 02:45:03;;;;;;;34.80;14.47;;;;;;;;;;5088340;28;20444;-73
2022/12/09 02:47:33;;;;;;;27.70;11.07;;;;;;;;;;5080574;28;20452;-73
2022/12/09 02:50:10;;;;;;;27.33;12.00;;;;;;;;;;5077698;28;20871;-74
2022/12/09 02:52:38;;;;;;;31.50;13.37;;;;;;;;;;5096751;28;20474;-73
2022/12/09 02:55:08;;;;;;;33.00;15.80;;;;;;;;;;5091948;28;20915;-74
2022/12/09 02:57:36;;;;;;;34.30;13.30;;;;;;;;;;5076457;28;20449;-74
2022/12/09 03:00:05;;;;;;;27.17;12.67;;;;;;;;;;5079862;28;20448;-74
2022/12/09 03:02:35;;;;;;;25.40;12.73;;;;;;;;;;5097439;28;20909;-74
2022/12/09 03:05:09;;;;;;;27.80;13.13;;;;;;;;;;5089156;28;20470;-73
2022/12/09 03:07:41;;;;;;;27.97;12.97;;;;;;;;;;5076469;28;20448;-74
2022/12/09 03:10:14;;;;;;;31.47;11.70;;;;;;;;;;5077967;28;21167;-74
2022/12/09 03:12:44;;;;;;;33.37;14.80;;;;;;;;;;5078491;28;20930;-73
2022/12/09 03:15:13;;;;;;;27.47;11.20;;;;;;;;;;5081768;28;20891;-73
2022/12/09 03:17:42;;;;;;;24.27;11.30;;;;;;;;;;5099827;28;20459;-73
2022/12/09 03:20:13;;;;;;;19.43;10.77;;;;;;;;;;5094618;28;20448;-73
2022/12/09 03:22:48;;;;;;;23.27;11.00;;;;;;;;;;5100160;28;20455;-73
2022/12/09 03:25:20;;;;;;;26.17;12.40;;;;;;;;;;5079923;28;20456;-74
2022/12/09 03:27:50;;;;;;;23.30;11.20;;;;;;;;;;5079434;28;20475;-73
2022/12/09 03:30:18;;;;;;;23.47;12.50;;;;;;;;;;5091537;28;20712;-73
2022/12/09 03:32:53;;;;;;;18.27;10.23;;;;;;;;;;5090744;28;20509;-74
2022/12/09 03:35:27;;;;;;;19.00;10.63;;;;;;;;;;5079655;28;20565;-73
2022/12/09 03:37:55;;;;;;;18.93;11.70;;;;;;;;;;5078988;28;21043;-73
2022/12/09 03:40:24;;;;;;;26.10;12.67;;;;;;;;;;5081591;28;20884;-73
2022/12/09 03:42:54;;;;;;;16.93;9.73;;;;;;;;;;5099169;28;20455;-74
2022/12/09 03:45:26;;;;;;;18.60;10.60;;;;;;;;;;5091259;28;20717;-73
2022/12/09 03:47:53;;;;;;;20.13;11.73;;;;;;;;;;5078709;28;20456;-73
2022/12/09 03:50:22;;;;;;;20.07;9.57;;;;;;;;;;5080883;28;20865;-73
2022/12/09 03:52:57;;;;;;;18.53;11.67;;;;;;;;;;5079436;28;20514;-72
2022/12/09 03:55:27;;;;;;;21.17;10.27;;;;;;;;;;5097439;28;20553;-72
2022/12/09 03:57:57;;;;;;;17.20;10.07;;;;;;;;;;5098454;28;20463;-72
2022/12/09 04:00:26;;;;;;;20.40;10.40;;;;;;;;;;5097947;28;20875;-72
2022/12/09 04:02:57;;;;;;;27.37;11.40;;;;;;;;;;5093058;28;20887;-73
2022/12/09 04:05:28;;;;;;;21.07;10.40;;;;;;;;;;5098770;28;21022;-72
2022/12/09 04:07:57;;;;;;;19.90;11.67;;;;;;;;;;5098857;28;20451;-72
2022/12/09 04:10:25;;;;;;;18.03;10.37;;;;;;;;;;5095948;28;20448;-73
2022/12/09 04:12:53;;;;;;;21.80;11.17;;;;;;;;;;5086316;28;20462;-72
2022/12/09 04:15:21;;;;;;;19.60;10.77;;;;;;;;;;5087407;28;20491;-73
2022/12/09 04:17:52;;;;;;;24.27;11.17;;;;;;;;;;5093863;28;20451;-73
2022/12/09 04:20:26;;;;;;;15.17;8.10;;;;;;;;;;5098548;28;20443;-73
2022/12/09 04:22:53;;;;;;;18.93;9.90;;;;;;;;;;5097885;28;20794;-74
2022/12/09 04:25:25;;;;;;;20.87;9.47;;;;;;;;;;5098764;28;20459;-73
2022/12/09 04:27:57;;;;;;;20.10;11.10;;;;;;;;;;5098516;28;20521;-73
2022/12/09 04:30:25;;;;;;;17.40;9.87;;;;;;;;;;5079058;28;20448;-74
2022/12/09 04:32:52;;;;;;;17.43;9.40;;;;;;;;;;5078324;28;20457;-73
2022/12/09 04:35:24;;;;;;;23.67;11.37;;;;;;;;;;5077606;28;21068;-73
2022/12/09 04:37:52;;;;;;;21.87;11.57;;;;;;;;;;5078156;28;20456;-73
2022/12/09 04:40:21;;;;;;;19.40;11.40;;;;;;;;;;5077457;28;20441;-73
2022/12/09 04:42:51;;;;;;;17.37;9.50;;;;;;;;;;5078695;28;20464;-71
2022/12/09 04:45:19;;;;;;;14.37;10.60;;;;;;;;;;5079347;28;20449;-73
2022/12/09 04:47:48;;;;;;;18.87;11.23;;;;;;;;;;5089247;28;20464;-73
2022/12/09 04:50:28;;;;;;;23.23;10.63;;;;;;;;;;5080340;28;20459;-73
2022/12/09 04:52:56;;;;;;;18.63;10.67;;;;;;;;;;5077945;28;20733;-72
2022/12/09 04:55:24;;;;;;;18.87;9.50;;;;;;;;;;5077431;28;20491;-72
2022/12/09 04:57:54;;;;;;;20.43;10.43;;;;;;;;;;5077846;28;20469;-72
2022/12/09 05:00:23;;;;;;;19.97;9.40;;;;;;;;;;5077204;28;20460;-72
2022/12/09 05:02:51;;;;;;;17.80;8.60;;;;;;;;;;5076436;28;20452;-72
2022/12/09 05:05:20;;;;;;;18.77;9.43;;;;;;;;;;5077142;28;20547;-72
2022/12/09 05:07:48;;;;;;;15.67;8.27;;;;;;;;;;5077653;28;20530;-72
2022/12/09 05:10:16;;;;;;;15.27;8.97;;;;;;;;;;5078893;28;20576;-72
2022/12/09 05:12:44;;;;;;;19.20;8.73;;;;;;;;;;5078013;28;20445;-72
2022/12/09 05:15:13;;;;;;;21.00;9.33;;;;;;;;;;5086021;28;20484;-72
2022/12/09 05:17:41;;;;;;;20.30;9.73;;;;;;;;;;5088191;28;20447;-72
2022/12/09 05:20:09;;;;;;;17.03;8.00;;;;;;;;;;5092063;28;20461;-73
2022/12/09 05:22:37;;;;;;;19.70;9.87;;;;;;;;;;5079583;28;20739;-72
2022/12/09 05:25:04;;;;;;;16.93;9.57;;;;;;;;;;5095279;28;20448;-72
2022/12/09 05:27:32;;;;;;;17.40;9.30;;;;;;;;;;5098589;28;20471;-72
2022/12/09 05:29:59;;;;;;;14.53;9.10;;;;;;;;;;5094896;28;20453;-72
2022/12/09 05:32:29;;;;;;;16.17;8.47;;;;;;;;;;5078524;28;20464;-72
2022/12/09 05:34:59;;;;;;;21.10;10.67;;;;;;;;;;5084205;28;20479;-71
2022/12/09 05:37:27;;;;;;;15.73;5.97;;;;;;;;;;5084854;28;20464;-73
2022/12/09 05:39:55;;;;;;;16.43;8.27;;;;;;;;;;5081966;28;20521;-72
2022/12/09 05:42:22;;;;;;;13.93;8.23;;;;;;;;;;5089062;28;20457;-72
2022/12/09 05:44:50;;;;;;;10.53;5.87;;;;;;;;;;5081097;28;20464;-72
2022/12/09 05:47:18;;;;;;;17.60;8.67;;;;;;;;;;5078990;28;20464;-72
2022/12/09 05:49:47;;;;;;;17.53;10.30;;;;;;;;;;5088125;28;20795;-72
2022/12/09 05:52:14;;;;;;;16.23;8.77;;;;;;;;;;5094520;28;20475;-72
2022/12/09 05:54:42;;;;;;;14.30;7.80;;;;;;;;;;5093665;28;20479;-72
2022/12/09 05:57:09;;;;;;;16.60;9.80;;;;;;;;;;5076564;28;20453;-72
2022/12/09 05:59:37;;;;;;;14.87;9.00;;;;;;;;;;5076667;28;20452;-72
2022/12/09 06:02:05;;;;;;;19.27;9.03;;;;;;;;;;5086862;28;20463;-74
2022/12/09 06:04:32;;;;;;;20.97;9.80;;;;;;;;;;5096566;28;20471;-73
2022/12/09 06:07:01;;;;;;;17.03;9.50;;;;;;;;;;5095996;28;20528;-73
2022/12/09 06:09:29;;;;;;;22.60;10.73;;;;;;;;;;5096119;28;20487;-73
2022/12/09 06:11:58;;;;;;;17.87;8.40;;;;;;;;;;5076252;28;20464;-73
2022/12/09 06:14:25;;;;;;;20.07;10.40;;;;;;;;;;5075895;28;20469;-72
2022/12/09 06:16:53;;;;;;;21.60;8.90;;;;;;;;;;5081285;28;20440;-72
2022/12/09 06:19:20;;;;;;;19.47;10.20;;;;;;;;;;5094608;28;20455;-73
2022/12/09 06:21:48;;;;;;;19.80;11.40;;;;;;;;;;5091383;28;20457;-72
2022/12/09 06:24:17;;;;;;;25.83;10.33;;;;;;;;;;5075151;28;20456;-73
2022/12/09 06:26:45;;;;;;;21.83;10.27;;;;;;;;;;5075047;28;20457;-73
2022/12/09 06:29:13;;;;;;;25.40;11.70;;;;;;;;;;5077428;28;20444;-73
2022/12/09 06:31:40;;;;;;;23.70;12.30;;;;;;;;;;5091264;28;20455;-72
2022/12/09 06:34:09;;;;;;;19.00;10.43;;;;;;;;;;5081175;28;20501;-72
2022/12/09 06:36:37;;;;;;;17.43;9.27;;;;;;;;;;5071837;28;20751;-72
2022/12/09 06:39:05;;;;;;;19.57;11.73;;;;;;;;;;5090354;28;20470;-72
2022/12/09 06:41:37;;;;;;;19.10;10.23;;;;;;;;;;5091427;28;20452;-72
2022/12/09 06:44:05;;;;;;;19.70;9.13;;;;;;;;;;5094791;28;20479;-74
2022/12/09 06:46:36;;;;;;;31.07;12.63;;;;;;;;;;5096489;28;20467;-74
2022/12/09 06:49:08;;;;;;;22.20;10.20;;;;;;;;;;5095988;28;20482;-75
2022/12/09 06:51:35;;;;;;;22.47;10.83;;;;;;;;;;5082130;28;20460;-74
2022/12/09 06:54:05;;;;;;;22.30;11.23;;;;;;;;;;5078762;28;20967;-73
2022/12/09 06:56:35;;;;;;;20.03;10.40;;;;;;;;;;5079690;28;20553;-75
2022/12/09 06:59:07;;;;;;;16.03;9.40;;;;;;;;;;5080854;28;20555;-73
2022/12/09 07:01:36;;;;;;;17.97;8.70;;;;;;;;;;5091515;28;20530;-70
2022/12/09 07:04:06;;;;;;;21.07;11.90;;;;;;;;;;5091625;28;20452;-71
2022/12/09 07:06:34;;;;;;;18.57;9.67;;;;;;;;;;5076138;28;20464;-71
2022/12/09 07:09:05;;;;;;;17.47;11.00;;;;;;;;;;5089123;28;20456;-72
2022/12/09 07:11:34;;;;;;;24.27;11.23;;;;;;;;;;5074274;28;20453;-71
2022/12/09 07:14:02;;;;;;;19.03;8.30;;;;;;;;;;5096868;28;20447;-74
2022/12/09 07:16:30;;;;;;;18.30;8.77;;;;;;;;;;5079411;28;20758;-72
2022/12/09 07:18:57;;;;;;;20.40;13.73;;;;;;;;;;5089653;28;20516;-72
2022/12/09 07:21:26;;;;;;;19.83;9.83;;;;;;;;;;5084934;28;20471;-76
2022/12/09 07:23:55;;;;;;;17.40;10.30;;;;;;;;;;5081694;28;20453;-72
2022/12/09 07:26:23;;;;;;;18.00;9.60;;;;;;;;;;5074788;28;20482;-72
2022/12/09 07:28:52;;;;;;;17.93;9.60;;;;;;;;;;5077197;28;20453;-72
2022/12/09 07:31:21;;;;;;;16.87;9.93;;;;;;;;;;5080162;28;20500;-72
2022/12/09 07:33:56;;;;;;;15.33;8.20;;;;;;;;;;5079198;28;20449;-72
2022/12/09 07:36:28;;;;;;;23.63;8.73;;;;;;;;;;5085438;28;20934;-72
2022/12/09 07:39:00;;;;;;;16.70;8.67;;;;;;;;;;5089406;28;20449;-71
2022/12/09 07:41:31;;;;;;;17.50;8.97;;;;;;;;;;5087172;28;20558;-73
2022/12/09 07:44:02;;;;;;;19.13;10.30;;;;;;;;;;5091709;28;20460;-71
2022/12/09 07:46:30;;;;;;;17.03;9.47;;;;;;;;;;5081948;28;20456;-73
2022/12/09 07:49:03;;;;;;;22.43;8.70;;;;;;;;;;5079671;28;20464;-71
2022/12/09 07:51:31;;;;;;;21.33;9.37;;;;;;;;;;5095499;28;20793;-71
2022/12/09 07:54:01;;;;;;;19.10;11.47;;;;;;;;;;5090338;28;20456;-71
2022/12/09 07:56:30;;;;;;;19.20;9.80;;;;;;;;;;5084944;28;20932;-71
2022/12/09 07:58:59;;;;;;;19.03;9.97;;;;;;;;;;5086718;28;20881;-71
2022/12/09 08:01:40;;;;;;;17.90;8.73;;;;;;;;;;5079582;28;20483;-72
2022/12/09 08:04:23;;;;;;;23.03;12.43;;;;;;;;;;5090634;28;20538;-71
2022/12/09 08:06:51;;;;;;;17.57;9.93;;;;;;;;;;5086403;28;20545;-71
2022/12/09 08:09:21;;;;;;;17.90;10.33;;;;;;;;;;5082549;28;20456;-72
2022/12/09 08:11:51;;;;;;;20.17;12.50;;;;;;;;;;5080432;28;20452;-70
2022/12/09 08:14:20;;;;;;;24.80;10.90;;;;;;;;;;5081420;28;20475;-71
2022/12/09 08:16:54;;;;;;;19.97;10.80;;;;;;;;;;5088969;28;20487;-71
2022/12/09 08:19:21;;;;;;;18.30;8.97;;;;;;;;;;5080744;28;20463;-72
2022/12/09 08:21:49;;;;;;;18.93;10.33;;;;;;;;;;5079249;28;20494;-72
2022/12/09 08:24:26;;;;;;;19.03;10.87;;;;;;;;;;5075373;28;20477;-72
2022/12/09 08:26:57;;;;;;;20.33;10.30;;;;;;;;;;5082000;28;20463;-72
2022/12/09 08:29:31;;;;;;;20.20;11.27;;;;;;;;;;5087222;28;20464;-72
2022/12/09 08:32:11;;;;;;;19.77;11.43;;;;;;;;;;5076158;28;20468;-72
2022/12/09 08:34:43;;;;;;;17.13;10.03;;;;;;;;;;5078574;28;20551;-72
2022/12/09 08:37:11;;;;;;;26.70;12.00;;;;;;;;;;5080374;28;20791;-72
2022/12/09 08:39:43;;;;;;;19.87;9.67;;;;;;;;;;5084421;28;20556;-72
2022/12/09 08:42:15;;;;;;;21.50;10.20;;;;;;;;;;5081273;28;20956;-72
2022/12/09 08:44:46;;;;;;;15.00;9.27;;;;;;;;;;5080777;28;20460;-71
2022/12/09 08:47:15;;;;;;;20.70;9.40;;;;;;;;;;5077347;28;20456;-72
2022/12/09 08:49:43;;;;;;;22.40;10.60;;;;;;;;;;5081614;28;20463;-71
2022/12/09 08:52:12;;;;;;;17.90;11.13;;;;;;;;;;5090222;28;20475;-70
2022/12/09 08:54:45;;;;;;;20.47;10.67;;;;;;;;;;5073774;28;20873;-71
2022/12/09 08:57:14;;;;;;;17.50;10.47;;;;;;;;;;5079188;28;20472;-70
2022/12/09 08:59:45;;;;;;;20.07;10.33;;;;;;;;;;5085604;28;20860;-71
2022/12/09 09:05:30;;;;;;;22.07;13.20;;;;;;;;;;5084217;28;20461;-71
2022/12/09 09:08:02;;;;;;;19.70;10.03;;;;;;;;;;5083256;28;20828;-71
2022/12/09 09:10:30;;;;;;;20.10;10.43;;;;;;;;;;5079405;28;20880;-70
2022/12/09 09:12:58;;;;;;;23.67;10.53;;;;;;;;;;5086891;28;20461;-69
2022/12/09 09:15:29;;;;;;;22.67;11.50;;;;;;;;;;5089029;28;20478;-69
2022/12/09 09:18:18;;;;;;;19.67;11.57;;;;;;;;;;5074279;28;20465;-70
2022/12/09 09:21:16;;;;;;;24.07;11.23;;;;;;;;;;5073562;28;20452;-69
2022/12/09 09:27:04;;;;;;;27.63;13.43;;;;;;;;;;5076995;28;20527;-70
2022/12/09 09:32:53;;;;;;;33.47;13.17;;;;;;;;;;5019201;28;20557;-69
2022/12/09 09:35:48;;;;;;;27.00;12.37;;;;;;;;;;5070689;28;20524;-70
2022/12/09 09:38:24;;;;;;;24.97;12.47;;;;;;;;;;5079613;28;20525;-71
2022/12/09 09:40:54;;;;;;;27.63;12.90;;;;;;;;;;5072184;28;20558;-71
2022/12/09 09:43:27;;;;;;;25.50;12.90;;;;;;;;;;5073537;28;20499;-70
2022/12/09 09:46:01;;;;;;;35.70;16.07;;;;;;;;;;5074224;28;20885;-71
2022/12/09 09:51:28;;;;;;;27.63;14.33;;;;;;;;;;5077603;28;20528;-70
2022/12/09 09:54:17;;;;;;;45.77;18.70;;;;;;;;;;5085067;28;20480;-70
2022/12/09 09:56:53;;;;;;;30.37;14.43;;;;;;;;;;5083921;28;20489;-70
2022/12/09 09:59:30;;;;;;;36.37;15.60;;;;;;;;;;5088806;28;20897;-70
2022/12/09 10:05:22;;;;;;;40.27;16.53;;;;;;;;;;5058523;28;20516;-71
2022/12/09 10:07:55;;;;;;;35.03;15.00;;;;;;;;;;5088439;28;20467;-70
2022/12/09 10:10:31;;;;;;;48.60;17.80;;;;;;;;;;5092942;28;20522;-70
2022/12/09 10:13:24;;;;;;;32.70;15.23;;;;;;;;;;5076564;28;20452;-71
2022/12/09 10:16:00;;;;;;;38.73;16.20;;;;;;;;;;5083672;28;20444;-70
2022/12/09 10:18:30;;;;;;;40.77;16.10;;;;;;;;;;5082736;28;20456;-71
2022/12/09 10:21:01;;;;;;;48.80;18.83;;;;;;;;;;5078924;28;20530;-71
2022/12/09 10:23:31;;;;;;;39.63;17.37;;;;;;;;;;5085222;28;20879;-71
2022/12/09 10:26:03;;;;;;;36.27;15.40;;;;;;;;;;5091357;28;20462;-71
2022/12/09 10:28:33;;;;;;;41.13;17.37;;;;;;;;;;5080061;28;20523;-71
2022/12/09 10:31:03;;;;;;;41.73;17.30;;;;;;;;;;5085852;28;20513;-70
2022/12/09 10:33:33;;;;;;;41.90;17.17;;;;;;;;;;5077013;28;20464;-70
2022/12/09 10:36:04;;;;;;;36.80;16.87;;;;;;;;;;5077104;28;20502;-72
2022/12/09 10:38:32;;;;;;;32.20;14.23;;;;;;;;;;5077856;28;20539;-71
2022/12/09 10:41:03;;;;;;;35.20;15.73;;;;;;;;;;5076192;28;20448;-71
2022/12/09 10:43:43;;;;;;;33.60;15.70;;;;;;;;;;5076240;28;20460;-71
2022/12/09 10:46:12;;;;;;;25.80;14.93;;;;;;;;;;5077050;28;20499;-71
2022/12/09 10:48:44;;;;;;;37.83;15.33;;;;;;;;;;5077699;28;20511;-73
2022/12/09 10:51:14;;;;;;;30.70;15.10;;;;;;;;;;5078911;28;20448;-70
2022/12/09 10:54:02;;;;;;;25.67;14.27;;;;;;;;;;5078840;28;20463;-70
2022/12/09 11:00:07;;;;;;;38.60;13.17;;;;;;;;;;5068249;28;20527;-70
2022/12/09 11:02:48;;;;;;;36.83;16.53;;;;;;;;;;5079744;28;20514;-71
2022/12/09 11:05:26;;;;;;;38.23;13.37;;;;;;;;;;5085875;28;20456;-71
2022/12/09 11:08:01;;;;;;;40.20;14.53;;;;;;;;;;5083839;28;20458;-72
2022/12/09 11:10:30;;;;;;;27.80;13.77;;;;;;;;;;5094449;28;20491;-73
2022/12/09 11:13:03;;;;;;;28.07;11.60;;;;;;;;;;5082102;28;20452;-72
2022/12/09 11:15:35;;;;;;;34.60;15.40;;;;;;;;;;5089809;28;20653;-72
2022/12/09 11:18:07;;;;;;;27.07;14.27;;;;;;;;;;5082399;28;20484;-71
2022/12/09 11:20:46;;;;;;;38.10;15.93;;;;;;;;;;5081040;28;20512;-70
2022/12/09 11:23:16;;;;;;;37.13;15.53;;;;;;;;;;5081921;28;20460;-71
2022/12/09 11:25:56;;;;;;;24.97;14.20;;;;;;;;;;5085705;28;20499;-72
2022/12/09 11:28:39;;;;;;;26.13;12.30;;;;;;;;;;5077396;28;20487;-72
2022/12/09 11:31:27;;;;;;;21.47;13.50;;;;;;;;;;5077264;28;20456;-71
2022/12/09 11:33:59;;;;;;;21.73;10.13;;;;;;;;;;5080703;28;20460;-72
2022/12/09 11:36:34;;;;;;;28.33;13.90;;;;;;;;;;5090805;28;20591;-70
2022/12/09 11:42:20;;;;;;;21.70;10.53;;;;;;;;;;5031501;28;20446;-70
2022/12/09 11:44:56;;;;;;;29.13;13.37;;;;;;;;;;5075915;28;20545;-73
2022/12/09 11:47:31;;;;;;;23.67;13.27;;;;;;;;;;5079658;28;20479;-71
2022/12/09 11:50:06;;;;;;;28.90;10.80;;;;;;;;;;5090477;28;20941;-71
2022/12/09 11:52:43;;;;;;;23.80;11.53;;;;;;;;;;5097857;28;20462;-72
2022/12/09 11:55:33;;;;;;;18.10;11.70;;;;;;;;;;5098162;28;20455;-71
2022/12/09 11:58:08;;;;;;;22.80;12.57;;;;;;;;;;5096243;28;20479;-71
2022/12/09 12:00:39;;;;;;;27.73;12.30;;;;;;;;;;5085069;28;21140;-72
2022/12/09 12:03:14;;;;;;;24.43;13.17;;;;;;;;;;5080166;28;20453;-71
2022/12/09 12:05:49;;;;;;;33.87;17.03;;;;;;;;;;5081326;28;20464;-71
2022/12/09 12:08:22;;;;;;;21.83;11.70;;;;;;;;;;5084268;28;20468;-72
2022/12/09 12:10:52;;;;;;;33.60;16.97;;;;;;;;;;5083675;28;20463;-70
2022/12/09 12:13:29;;;;;;;27.73;14.43;;;;;;;;;;5082697;28;20456;-71
2022/12/09 12:16:04;;;;;;;27.03;14.40;;;;;;;;;;5087513;28;20444;-71
2022/12/09 12:18:40;;;;;;;28.80;13.27;;;;;;;;;;5079890;28;20518;-71
2022/12/09 12:21:37;;;;;;;32.10;15.20;;;;;;;;;;5080723;28;20453;-71
2022/12/09 12:24:28;;;;;;;21.43;12.83;;;;;;;;;;5079970;28;20456;-71
2022/12/09 12:27:17;;;;;;;21.23;12.80;;;;;;;;;;5080390;28;20463;-71
2022/12/09 12:29:56;;;;;;;17.33;11.23;;;;;;;;;;5078674;28;20451;-71
2022/12/09 12:32:38;;;;;;;21.67;12.57;;;;;;;;;;5075606;28;21084;-70
2022/12/09 12:35:29;;;;;;;17.20;9.47;;;;;;;;;;5076192;28;20444;-72
2022/12/09 12:38:09;;;;;;;19.63;11.50;;;;;;;;;;5074606;28;20486;-70
2022/12/09 12:40:44;;;;;;;22.63;11.23;;;;;;;;;;5076000;28;20449;-71
2022/12/09 12:46:26;;;;;;;21.20;12.13;;;;;;;;;;5082783;28;20439;-70
2022/12/09 12:49:20;;;;;;;21.77;11.10;;;;;;;;;;5093197;28;20464;-72
2022/12/09 12:52:29;;;;;;;23.77;12.00;;;;;;;;;;5076056;28;20488;-71
2022/12/09 12:55:19;;;;;;;15.97;9.67;;;;;;;;;;5076798;28;20453;-70
2022/12/09 13:03:54;;;;;;;19.87;10.90;;;;;;;;;;4971200;26;20776;-75
2022/12/09 13:06:37;;;;;;;23.37;11.90;;;;;;;;;;5036859;28;20488;-76
2022/12/09 13:09:14;;;;;;;19.07;11.37;;;;;;;;;;5034544;28;20492;-75
2022/12/09 13:12:00;;;;;;;16.00;9.70;;;;;;;;;;5037165;28;20472;-76
2022/12/09 13:14:32;;;;;;;15.40;9.63;;;;;;;;;;5034855;28;20454;-75
2022/12/09 13:17:01;;;;;;;19.80;10.23;;;;;;;;;;5033014;28;20763;-75
2022/12/09 13:19:33;;;;;;;20.10;10.60;;;;;;;;;;5040252;28;20768;-75
2022/12/09 13:22:16;;;;;;;19.83;10.10;;;;;;;;;;5044517;28;20502;-75
2022/12/09 13:24:54;;;;;;;13.63;8.87;;;;;;;;;;5038365;28;20778;-74
2022/12/09 13:27:26;;;;;;;13.63;9.60;;;;;;;;;;5049654;28;20472;-74
2022/12/09 13:29:57;;;;;;;17.27;10.30;;;;;;;;;;5045629;28;20584;-75
2022/12/09 13:32:51;;;;;;;16.63;9.03;;;;;;;;;;5056537;28;20460;-74
2022/12/09 13:35:23;;;;;;;20.10;10.47;;;;;;;;;;5031508;28;21004;-74
2022/12/09 13:38:00;;;;;;;18.20;9.97;;;;;;;;;;5057322;28;20572;-76
2022/12/09 13:40:34;;;;;;;15.53;9.33;;;;;;;;;;5057140;28;20468;-76
2022/12/09 13:43:07;;;;;;;15.47;7.87;;;;;;;;;;5052043;28;20538;-76
2022/12/09 13:45:39;;;;;;;15.00;8.13;;;;;;;;;;5050391;28;20477;-76
2022/12/09 13:48:08;;;;;;;15.10;6.90;;;;;;;;;;5040538;28;20893;-75
2022/12/09 13:50:39;;;;;;;10.83;6.83;;;;;;;;;;5053417;28;20858;-75
2022/12/09 13:53:08;;;;;;;9.27;6.50;;;;;;;;;;5052019;28;20476;-75
2022/12/09 13:55:40;;;;;;;10.57;7.50;;;;;;;;;;5043080;28;20476;-75
2022/12/09 13:58:23;;;;;;;19.80;9.47;;;;;;;;;;5043011;28;20519;-76
2022/12/09 14:01:01;;;;;;;10.77;6.90;;;;;;;;;;5042012;28;20902;-75
2022/12/09 14:03:31;;;;;;;11.93;7.13;;;;;;;;;;5037592;28;20525;-76
2022/12/09 14:06:01;;;;;;;13.10;7.83;;;;;;;;;;5036046;28;20524;-76
2022/12/09 14:08:34;;;;;;;15.13;7.07;;;;;;;;;;5041226;28;20462;-76
2022/12/09 14:11:27;;;;;;;10.40;6.73;;;;;;;;;;5046476;28;20465;-76
2022/12/09 14:14:15;;;;;;;18.40;8.80;;;;;;;;;;5038970;28;20516;-75
2022/12/09 14:16:43;;;;;;;15.90;9.10;;;;;;;;;;5037262;28;20469;-76
2022/12/09 14:19:38;;;;;;;12.83;7.93;;;;;;;;;;5039698;28;20498;-74
2022/12/09 14:22:29;;;;;;;18.40;9.90;;;;;;;;;;5040313;28;20683;-74
2022/12/09 14:25:26;;;;;;;11.60;7.90;;;;;;;;;;5036939;28;20561;-74
2022/12/09 14:28:15;;;;;;;17.73;12.37;;;;;;;;;;5042424;28;20518;-75
2022/12/09 14:30:52;;;;;;;21.33;12.03;;;;;;;;;;5037578;28;20455;-77
2022/12/09 14:33:23;;;;;;;9.03;6.40;;;;;;;;;;5041139;28;20473;-75
2022/12/09 14:35:54;;;;;;;12.10;8.00;;;;;;;;;;5035076;28;20470;-75
2022/12/09 14:38:26;;;;;;;13.70;8.10;;;;;;;;;;5036730;28;20478;-75
2022/12/09 14:41:00;;;;;;;12.63;7.57;;;;;;;;;;5038805;28;20458;-75
2022/12/09 14:43:40;;;;;;;12.63;7.70;;;;;;;;;;5046644;28;20497;-74
2022/12/09 14:46:21;;;;;;;10.17;7.03;;;;;;;;;;5036214;28;20896;-75
2022/12/09 14:48:53;;;;;;;14.97;7.20;;;;;;;;;;5044625;28;20466;-75
2022/12/09 14:51:23;;;;;;;14.37;8.47;;;;;;;;;;5040324;28;20485;-76
2022/12/09 14:53:52;;;;;;;13.93;8.47;;;;;;;;;;5048502;28;20461;-76
2022/12/09 14:56:21;;;;;;;11.33;7.30;;;;;;;;;;5034511;28;20470;-75
2022/12/09 14:58:50;;;;;;;9.23;7.30;;;;;;;;;;5034716;28;20482;-75
2022/12/09 15:01:25;;;;;;;9.60;7.03;;;;;;;;;;5031913;28;20473;-74
2022/12/09 15:03:54;;;;;;;11.93;8.23;;;;;;;;;;5040895;28;20620;-75
2022/12/09 15:06:25;;;;;;;14.77;8.47;;;;;;;;;;5048945;28;20469;-75
2022/12/09 15:08:54;;;;;;;11.77;7.47;;;;;;;;;;5047462;28;20896;-74
2022/12/09 15:11:25;;;;;;;11.77;7.97;;;;;;;;;;5041421;28;20470;-74
2022/12/09 15:13:55;;;;;;;12.33;7.37;;;;;;;;;;5035008;28;20466;-74
2022/12/09 15:16:27;;;;;;;11.47;6.73;;;;;;;;;;5037239;28;20473;-74
2022/12/09 15:18:58;;;;;;;11.63;8.50;;;;;;;;;;5038799;28;20501;-75
2022/12/09 15:21:30;;;;;;;11.27;7.07;;;;;;;;;;5048070;28;20453;-76
2022/12/09 15:23:58;;;;;;;10.43;7.60;;;;;;;;;;5054263;28;20557;-76
2022/12/09 15:26:27;;;;;;;12.87;7.73;;;;;;;;;;5056711;28;20472;-75
2022/12/09 15:28:56;;;;;;;24.13;12.80;;;;;;;;;;5054545;28;20461;-76